sensor_id;sensor_type;location;lat;lon;timestamp;P1;durP1;ratioP1;P2;durP2;ratioP2
18445;SDS011;9352;50.888;4.466;2023-11-18T00:00:53;32.25;;;14.02;;
18445;SDS011;9352;50.888;4.466;2023-11-18T00:03:20;29.55;;;13.77;;
18445;SDS011;9352;50.888;4.466;2023-11-18T00:05:47;32.80;;;14.07;;
18445;SDS011;9352;50.888;4.466;2023-11-18T00:08:15;28.77;;;13.07;;
18445;SDS011;9352;50.888;4.466;2023-11-18T00:10:42;31.45;;;13.77;;
18445;SDS011;9352;50.888;4.466;2023-11-18T00:13:09;31.48;;;13.68;;
18445;SDS011;9352;50.888;4.466;2023-11-18T00:15:36;30.05;;;14.45;;
18445;SDS011;9352;50.888;4.466;2023-11-18T00:18:03;37.65;;;13.85;;
18445;SDS011;9352;50.888;4.466;2023-11-18T00:20:30;30.55;;;13.60;;
18445;SDS011;9352;50.888;4.466;2023-11-18T00:22:57;35.95;;;14.60;;
18445;SDS011;9352;50.888;4.466;2023-11-18T00:25:25;26.60;;;13.27;;
18445;SDS011;9352;50.888;4.466;2023-11-18T00:27:52;33.20;;;13.85;;
18445;SDS011;9352;50.888;4.466;2023-11-18T00:30:19;34.05;;;13.90;;
18445;SDS011;9352;50.888;4.466;2023-11-18T00:32:47;29.00;;;13.35;;
18445;SDS011;9352;50.888;4.466;2023-11-18T00:35:14;29.60;;;12.73;;
18445;SDS011;9352;50.888;4.466;2023-11-18T00:37:41;33.00;;;13.95;;
18445;SDS011;9352;50.888;4.466;2023-11-18T00:40:09;35.45;;;15.02;;
18445;SDS011;9352;50.888;4.466;2023-11-18T00:42:38;39.15;;;14.65;;
18445;SDS011;9352;50.888;4.466;2023-11-18T00:45:05;35.35;;;14.77;;
18445;SDS011;9352;50.888;4.466;2023-11-18T00:47:32;33.63;;;14.18;;
18445;SDS011;9352;50.888;4.466;2023-11-18T00:49:59;39.17;;;14.00;;
18445;SDS011;9352;50.888;4.466;2023-11-18T00:52:27;38.30;;;14.90;;
18445;SDS011;9352;50.888;4.466;2023-11-18T00:54:54;39.60;;;14.60;;
18445;SDS011;9352;50.888;4.466;2023-11-18T00:57:20;33.83;;;13.85;;
18445;SDS011;9352;50.888;4.466;2023-11-18T00:59:49;38.88;;;14.82;;
18445;SDS011;9352;50.888;4.466;2023-11-18T01:02:16;38.85;;;14.25;;
18445;SDS011;9352;50.888;4.466;2023-11-18T01:04:43;38.90;;;14.75;;
18445;SDS011;9352;50.888;4.466;2023-11-18T01:07:10;42.28;;;13.95;;
18445;SDS011;9352;50.888;4.466;2023-11-18T01:09:37;45.45;;;14.35;;
18445;SDS011;9352;50.888;4.466;2023-11-18T01:12:05;42.95;;;14.10;;
18445;SDS011;9352;50.888;4.466;2023-11-18T01:14:35;42.15;;;13.70;;
18445;SDS011;9352;50.888;4.466;2023-11-18T01:17:04;42.05;;;14.07;;
18445;SDS011;9352;50.888;4.466;2023-11-18T01:19:31;38.88;;;12.43;;
18445;SDS011;9352;50.888;4.466;2023-11-18T01:21:58;37.75;;;12.25;;
18445;SDS011;9352;50.888;4.466;2023-11-18T01:24:25;35.25;;;12.70;;
18445;SDS011;9352;50.888;4.466;2023-11-18T01:26:53;42.28;;;13.65;;
18445;SDS011;9352;50.888;4.466;2023-11-18T01:29:20;40.15;;;12.40;;
18445;SDS011;9352;50.888;4.466;2023-11-18T01:31:47;39.70;;;12.45;;
18445;SDS011;9352;50.888;4.466;2023-11-18T01:34:15;41.13;;;12.23;;
18445;SDS011;9352;50.888;4.466;2023-11-18T01:36:43;38.65;;;11.85;;
18445;SDS011;9352;50.888;4.466;2023-11-18T01:39:10;32.88;;;12.02;;
18445;SDS011;9352;50.888;4.466;2023-11-18T01:41:38;29.73;;;11.38;;
18445;SDS011;9352;50.888;4.466;2023-11-18T01:44:05;41.38;;;11.35;;
18445;SDS011;9352;50.888;4.466;2023-11-18T01:46:33;31.55;;;10.90;;
18445;SDS011;9352;50.888;4.466;2023-11-18T01:49:01;27.02;;;10.13;;
18445;SDS011;9352;50.888;4.466;2023-11-18T01:51:30;25.08;;;9.70;;
18445;SDS011;9352;50.888;4.466;2023-11-18T01:53:58;32.30;;;9.63;;
18445;SDS011;9352;50.888;4.466;2023-11-18T01:56:26;25.70;;;8.60;;
18445;SDS011;9352;50.888;4.466;2023-11-18T01:58:54;23.02;;;8.85;;
18445;SDS011;9352;50.888;4.466;2023-11-18T02:01:24;18.38;;;8.48;;
18445;SDS011;9352;50.888;4.466;2023-11-18T02:03:52;25.05;;;8.27;;
18445;SDS011;9352;50.888;4.466;2023-11-18T02:06:19;22.15;;;8.50;;
18445;SDS011;9352;50.888;4.466;2023-11-18T02:08:48;19.48;;;7.72;;
18445;SDS011;9352;50.888;4.466;2023-11-18T02:11:17;22.60;;;8.20;;
18445;SDS011;9352;50.888;4.466;2023-11-18T02:13:49;27.10;;;8.13;;
18445;SDS011;9352;50.888;4.466;2023-11-18T02:16:20;14.00;;;7.25;;
18445;SDS011;9352;50.888;4.466;2023-11-18T02:18:48;21.02;;;7.43;;
18445;SDS011;9352;50.888;4.466;2023-11-18T02:21:17;18.55;;;7.43;;
18445;SDS011;9352;50.888;4.466;2023-11-18T02:23:44;21.42;;;7.28;;
18445;SDS011;9352;50.888;4.466;2023-11-18T02:26:12;14.32;;;6.60;;
18445;SDS011;9352;50.888;4.466;2023-11-18T02:28:47;19.10;;;6.60;;
18445;SDS011;9352;50.888;4.466;2023-11-18T02:31:15;18.67;;;6.93;;
18445;SDS011;9352;50.888;4.466;2023-11-18T02:33:48;14.85;;;6.63;;
18445;SDS011;9352;50.888;4.466;2023-11-18T02:36:23;18.13;;;6.63;;
18445;SDS011;9352;50.888;4.466;2023-11-18T02:39:01;16.08;;;6.55;;
18445;SDS011;9352;50.888;4.466;2023-11-18T02:41:34;18.33;;;6.07;;
18445;SDS011;9352;50.888;4.466;2023-11-18T02:44:02;17.63;;;6.38;;
18445;SDS011;9352;50.888;4.466;2023-11-18T02:46:33;13.00;;;6.05;;
18445;SDS011;9352;50.888;4.466;2023-11-18T02:49:01;20.08;;;6.07;;
18445;SDS011;9352;50.888;4.466;2023-11-18T02:51:29;25.42;;;5.97;;
18445;SDS011;9352;50.888;4.466;2023-11-18T02:53:58;13.20;;;6.05;;
18445;SDS011;9352;50.888;4.466;2023-11-18T02:56:25;16.42;;;5.65;;
18445;SDS011;9352;50.888;4.466;2023-11-18T02:58:54;12.98;;;5.28;;
18445;SDS011;9352;50.888;4.466;2023-11-18T03:01:20;16.80;;;5.85;;
18445;SDS011;9352;50.888;4.466;2023-11-18T03:03:48;17.65;;;5.57;;
18445;SDS011;9352;50.888;4.466;2023-11-18T03:06:15;21.75;;;6.18;;
18445;SDS011;9352;50.888;4.466;2023-11-18T03:08:41;14.85;;;5.15;;
18445;SDS011;9352;50.888;4.466;2023-11-18T03:11:09;12.25;;;4.57;;
18445;SDS011;9352;50.888;4.466;2023-11-18T03:13:37;13.45;;;4.95;;
18445;SDS011;9352;50.888;4.466;2023-11-18T03:16:07;17.95;;;4.80;;
18445;SDS011;9352;50.888;4.466;2023-11-18T03:18:37;16.50;;;4.60;;
18445;SDS011;9352;50.888;4.466;2023-11-18T03:21:05;20.08;;;4.35;;
18445;SDS011;9352;50.888;4.466;2023-11-18T03:23:32;11.98;;;3.88;;
18445;SDS011;9352;50.888;4.466;2023-11-18T03:25:59;13.88;;;3.97;;
18445;SDS011;9352;50.888;4.466;2023-11-18T03:28:26;12.15;;;3.85;;
18445;SDS011;9352;50.888;4.466;2023-11-18T03:30:53;9.77;;;4.43;;
18445;SDS011;9352;50.888;4.466;2023-11-18T03:33:21;12.95;;;3.75;;
18445;SDS011;9352;50.888;4.466;2023-11-18T03:35:48;13.50;;;4.13;;
18445;SDS011;9352;50.888;4.466;2023-11-18T03:38:15;14.93;;;4.18;;
18445;SDS011;9352;50.888;4.466;2023-11-18T03:40:43;17.38;;;4.00;;
18445;SDS011;9352;50.888;4.466;2023-11-18T03:43:11;10.82;;;3.60;;
18445;SDS011;9352;50.888;4.466;2023-11-18T03:45:38;10.75;;;3.78;;
18445;SDS011;9352;50.888;4.466;2023-11-18T03:48:06;23.23;;;3.92;;
18445;SDS011;9352;50.888;4.466;2023-11-18T03:50:34;10.93;;;3.47;;
18445;SDS011;9352;50.888;4.466;2023-11-18T03:53:01;10.93;;;3.50;;
18445;SDS011;9352;50.888;4.466;2023-11-18T03:55:28;11.88;;;3.90;;
18445;SDS011;9352;50.888;4.466;2023-11-18T03:57:55;10.88;;;3.50;;
18445;SDS011;9352;50.888;4.466;2023-11-18T04:00:23;12.90;;;3.75;;
18445;SDS011;9352;50.888;4.466;2023-11-18T04:02:54;15.05;;;3.90;;
18445;SDS011;9352;50.888;4.466;2023-11-18T04:05:21;14.63;;;3.90;;
18445;SDS011;9352;50.888;4.466;2023-11-18T04:07:50;13.10;;;4.72;;
18445;SDS011;9352;50.888;4.466;2023-11-18T04:10:17;15.68;;;3.97;;
18445;SDS011;9352;50.888;4.466;2023-11-18T04:12:45;12.93;;;3.75;;
18445;SDS011;9352;50.888;4.466;2023-11-18T04:15:13;17.10;;;3.80;;
18445;SDS011;9352;50.888;4.466;2023-11-18T04:17:40;11.45;;;3.38;;
18445;SDS011;9352;50.888;4.466;2023-11-18T04:20:09;19.58;;;3.58;;
18445;SDS011;9352;50.888;4.466;2023-11-18T04:22:38;11.55;;;3.45;;
18445;SDS011;9352;50.888;4.466;2023-11-18T04:25:07;10.30;;;3.42;;
18445;SDS011;9352;50.888;4.466;2023-11-18T04:27:35;14.32;;;4.10;;
18445;SDS011;9352;50.888;4.466;2023-11-18T04:30:02;13.57;;;3.40;;
18445;SDS011;9352;50.888;4.466;2023-11-18T04:32:29;15.50;;;3.63;;
18445;SDS011;9352;50.888;4.466;2023-11-18T04:34:58;19.20;;;3.30;;
18445;SDS011;9352;50.888;4.466;2023-11-18T04:37:25;11.68;;;3.30;;
18445;SDS011;9352;50.888;4.466;2023-11-18T04:39:52;11.32;;;3.30;;
18445;SDS011;9352;50.888;4.466;2023-11-18T04:42:21;15.55;;;3.30;;
18445;SDS011;9352;50.888;4.466;2023-11-18T04:44:48;11.93;;;3.42;;
18445;SDS011;9352;50.888;4.466;2023-11-18T04:47:15;13.70;;;3.42;;
18445;SDS011;9352;50.888;4.466;2023-11-18T04:49:43;27.85;;;3.60;;
18445;SDS011;9352;50.888;4.466;2023-11-18T04:52:10;12.45;;;3.63;;
18445;SDS011;9352;50.888;4.466;2023-11-18T04:54:37;9.52;;;3.28;;
18445;SDS011;9352;50.888;4.466;2023-11-18T04:57:04;12.93;;;3.65;;
18445;SDS011;9352;50.888;4.466;2023-11-18T04:59:35;17.52;;;3.35;;
18445;SDS011;9352;50.888;4.466;2023-11-18T05:02:02;15.25;;;3.13;;
18445;SDS011;9352;50.888;4.466;2023-11-18T05:04:29;9.98;;;3.17;;
18445;SDS011;9352;50.888;4.466;2023-11-18T05:06:56;10.05;;;3.20;;
18445;SDS011;9352;50.888;4.466;2023-11-18T05:09:23;16.40;;;3.10;;
18445;SDS011;9352;50.888;4.466;2023-11-18T05:11:50;15.18;;;3.13;;
18445;SDS011;9352;50.888;4.466;2023-11-18T05:14:17;8.00;;;2.60;;
18445;SDS011;9352;50.888;4.466;2023-11-18T05:16:46;10.85;;;2.70;;
18445;SDS011;9352;50.888;4.466;2023-11-18T05:19:13;13.63;;;3.20;;
18445;SDS011;9352;50.888;4.466;2023-11-18T05:21:41;12.77;;;2.72;;
18445;SDS011;9352;50.888;4.466;2023-11-18T05:24:09;14.43;;;3.13;;
18445;SDS011;9352;50.888;4.466;2023-11-18T05:26:36;21.38;;;3.50;;
18445;SDS011;9352;50.888;4.466;2023-11-18T05:29:02;7.78;;;2.53;;
18445;SDS011;9352;50.888;4.466;2023-11-18T05:31:31;19.52;;;3.00;;
18445;SDS011;9352;50.888;4.466;2023-11-18T05:34:01;14.93;;;2.97;;
18445;SDS011;9352;50.888;4.466;2023-11-18T05:36:28;12.52;;;3.30;;
18445;SDS011;9352;50.888;4.466;2023-11-18T05:39:02;13.75;;;3.25;;
18445;SDS011;9352;50.888;4.466;2023-11-18T05:41:30;12.68;;;2.90;;
18445;SDS011;9352;50.888;4.466;2023-11-18T05:43:57;10.52;;;3.30;;
18445;SDS011;9352;50.888;4.466;2023-11-18T05:46:24;19.38;;;3.50;;
18445;SDS011;9352;50.888;4.466;2023-11-18T05:48:54;13.60;;;3.88;;
18445;SDS011;9352;50.888;4.466;2023-11-18T05:51:24;18.80;;;3.83;;
18445;SDS011;9352;50.888;4.466;2023-11-18T05:53:51;15.88;;;3.70;;
18445;SDS011;9352;50.888;4.466;2023-11-18T05:56:19;15.77;;;3.25;;
18445;SDS011;9352;50.888;4.466;2023-11-18T05:58:47;9.30;;;3.00;;
18445;SDS011;9352;50.888;4.466;2023-11-18T06:01:14;11.95;;;2.95;;
18445;SDS011;9352;50.888;4.466;2023-11-18T06:03:42;12.80;;;2.95;;
18445;SDS011;9352;50.888;4.466;2023-11-18T06:06:11;17.00;;;2.72;;
18445;SDS011;9352;50.888;4.466;2023-11-18T06:08:42;10.90;;;2.60;;
18445;SDS011;9352;50.888;4.466;2023-11-18T06:11:09;11.13;;;2.92;;
18445;SDS011;9352;50.888;4.466;2023-11-18T06:13:40;12.77;;;2.47;;
18445;SDS011;9352;50.888;4.466;2023-11-18T06:16:09;13.65;;;2.97;;
18445;SDS011;9352;50.888;4.466;2023-11-18T06:18:39;16.13;;;2.88;;
18445;SDS011;9352;50.888;4.466;2023-11-18T06:21:07;8.35;;;2.38;;
18445;SDS011;9352;50.888;4.466;2023-11-18T06:23:36;10.10;;;2.80;;
18445;SDS011;9352;50.888;4.466;2023-11-18T06:26:05;9.40;;;2.60;;
18445;SDS011;9352;50.888;4.466;2023-11-18T06:28:32;11.02;;;2.53;;
18445;SDS011;9352;50.888;4.466;2023-11-18T06:30:59;9.40;;;2.13;;
18445;SDS011;9352;50.888;4.466;2023-11-18T06:33:27;15.05;;;2.33;;
18445;SDS011;9352;50.888;4.466;2023-11-18T06:35:53;8.80;;;2.65;;
18445;SDS011;9352;50.888;4.466;2023-11-18T06:38:21;12.65;;;2.92;;
18445;SDS011;9352;50.888;4.466;2023-11-18T06:40:49;17.10;;;2.80;;
18445;SDS011;9352;50.888;4.466;2023-11-18T06:43:19;9.45;;;2.78;;
18445;SDS011;9352;50.888;4.466;2023-11-18T06:45:46;12.05;;;2.55;;
18445;SDS011;9352;50.888;4.466;2023-11-18T06:48:14;7.57;;;2.22;;
18445;SDS011;9352;50.888;4.466;2023-11-18T06:50:45;9.63;;;2.50;;
18445;SDS011;9352;50.888;4.466;2023-11-18T06:53:12;8.73;;;2.47;;
18445;SDS011;9352;50.888;4.466;2023-11-18T06:55:40;11.15;;;2.30;;
18445;SDS011;9352;50.888;4.466;2023-11-18T06:58:08;13.35;;;2.72;;
18445;SDS011;9352;50.888;4.466;2023-11-18T07:00:37;14.90;;;2.83;;
18445;SDS011;9352;50.888;4.466;2023-11-18T07:03:04;10.63;;;2.22;;
18445;SDS011;9352;50.888;4.466;2023-11-18T07:05:31;11.02;;;2.35;;
18445;SDS011;9352;50.888;4.466;2023-11-18T07:07:59;13.18;;;2.80;;
18445;SDS011;9352;50.888;4.466;2023-11-18T07:10:25;15.82;;;2.75;;
18445;SDS011;9352;50.888;4.466;2023-11-18T07:12:53;10.15;;;2.47;;
18445;SDS011;9352;50.888;4.466;2023-11-18T07:15:20;14.65;;;3.10;;
18445;SDS011;9352;50.888;4.466;2023-11-18T07:17:49;8.13;;;2.70;;
18445;SDS011;9352;50.888;4.466;2023-11-18T07:20:16;10.48;;;2.80;;
18445;SDS011;9352;50.888;4.466;2023-11-18T07:22:43;12.05;;;3.45;;
18445;SDS011;9352;50.888;4.466;2023-11-18T07:25:10;15.45;;;3.38;;
18445;SDS011;9352;50.888;4.466;2023-11-18T07:27:38;13.60;;;2.60;;
18445;SDS011;9352;50.888;4.466;2023-11-18T07:30:05;17.85;;;3.45;;
18445;SDS011;9352;50.888;4.466;2023-11-18T07:32:35;16.40;;;3.22;;
18445;SDS011;9352;50.888;4.466;2023-11-18T07:35:05;11.23;;;3.15;;
18445;SDS011;9352;50.888;4.466;2023-11-18T07:37:34;11.60;;;2.90;;
18445;SDS011;9352;50.888;4.466;2023-11-18T07:40:02;13.57;;;3.58;;
18445;SDS011;9352;50.888;4.466;2023-11-18T07:42:30;14.60;;;3.80;;
18445;SDS011;9352;50.888;4.466;2023-11-18T07:45:00;15.90;;;4.60;;
18445;SDS011;9352;50.888;4.466;2023-11-18T07:47:29;8.73;;;3.97;;
18445;SDS011;9352;50.888;4.466;2023-11-18T07:49:57;17.73;;;4.30;;
18445;SDS011;9352;50.888;4.466;2023-11-18T07:52:25;12.70;;;4.38;;
18445;SDS011;9352;50.888;4.466;2023-11-18T07:54:54;15.77;;;4.40;;
18445;SDS011;9352;50.888;4.466;2023-11-18T07:57:21;18.17;;;4.90;;
18445;SDS011;9352;50.888;4.466;2023-11-18T07:59:49;19.63;;;5.32;;
18445;SDS011;9352;50.888;4.466;2023-11-18T08:02:16;16.50;;;5.32;;
18445;SDS011;9352;50.888;4.466;2023-11-18T08:04:45;15.43;;;5.13;;
18445;SDS011;9352;50.888;4.466;2023-11-18T08:07:11;17.55;;;5.32;;
18445;SDS011;9352;50.888;4.466;2023-11-18T08:09:40;20.00;;;5.60;;
18445;SDS011;9352;50.888;4.466;2023-11-18T08:12:08;15.98;;;4.85;;
18445;SDS011;9352;50.888;4.466;2023-11-18T08:14:35;18.20;;;5.90;;
18445;SDS011;9352;50.888;4.466;2023-11-18T08:17:02;17.13;;;5.82;;
18445;SDS011;9352;50.888;4.466;2023-11-18T08:19:31;14.23;;;5.35;;
18445;SDS011;9352;50.888;4.466;2023-11-18T08:21:59;19.55;;;6.20;;
18445;SDS011;9352;50.888;4.466;2023-11-18T08:24:26;17.60;;;5.15;;
18445;SDS011;9352;50.888;4.466;2023-11-18T08:26:57;16.52;;;5.53;;
18445;SDS011;9352;50.888;4.466;2023-11-18T08:29:25;19.83;;;5.03;;
18445;SDS011;9352;50.888;4.466;2023-11-18T08:31:56;23.10;;;5.50;;
18445;SDS011;9352;50.888;4.466;2023-11-18T08:34:23;19.40;;;4.93;;
18445;SDS011;9352;50.888;4.466;2023-11-18T08:36:51;18.38;;;5.30;;
18445;SDS011;9352;50.888;4.466;2023-11-18T08:39:17;18.83;;;5.22;;
18445;SDS011;9352;50.888;4.466;2023-11-18T08:41:45;24.90;;;5.68;;
18445;SDS011;9352;50.888;4.466;2023-11-18T08:44:17;14.73;;;5.63;;
18445;SDS011;9352;50.888;4.466;2023-11-18T08:46:44;15.77;;;5.65;;
18445;SDS011;9352;50.888;4.466;2023-11-18T08:49:11;15.55;;;5.35;;
18445;SDS011;9352;50.888;4.466;2023-11-18T08:51:38;18.60;;;5.78;;
18445;SDS011;9352;50.888;4.466;2023-11-18T08:54:07;14.93;;;5.00;;
18445;SDS011;9352;50.888;4.466;2023-11-18T08:56:47;16.42;;;4.57;;
18445;SDS011;9352;50.888;4.466;2023-11-18T08:59:17;14.68;;;5.60;;
18445;SDS011;9352;50.888;4.466;2023-11-18T09:01:50;15.88;;;5.20;;
18445;SDS011;9352;50.888;4.466;2023-11-18T09:04:21;14.45;;;4.90;;
18445;SDS011;9352;50.888;4.466;2023-11-18T09:06:48;16.65;;;5.35;;
18445;SDS011;9352;50.888;4.466;2023-11-18T09:09:17;11.88;;;5.28;;
18445;SDS011;9352;50.888;4.466;2023-11-18T09:11:51;12.80;;;4.90;;
18445;SDS011;9352;50.888;4.466;2023-11-18T09:14:22;18.02;;;5.07;;
18445;SDS011;9352;50.888;4.466;2023-11-18T09:16:51;16.70;;;5.55;;
18445;SDS011;9352;50.888;4.466;2023-11-18T09:19:20;13.40;;;5.45;;
18445;SDS011;9352;50.888;4.466;2023-11-18T09:21:47;13.40;;;5.47;;
18445;SDS011;9352;50.888;4.466;2023-11-18T09:24:14;20.08;;;6.05;;
18445;SDS011;9352;50.888;4.466;2023-11-18T09:26:45;15.90;;;5.53;;
18445;SDS011;9352;50.888;4.466;2023-11-18T09:29:15;13.75;;;5.03;;
18445;SDS011;9352;50.888;4.466;2023-11-18T09:31:44;14.85;;;5.35;;
18445;SDS011;9352;50.888;4.466;2023-11-18T09:34:13;16.23;;;5.47;;
18445;SDS011;9352;50.888;4.466;2023-11-18T09:36:42;14.10;;;5.35;;
18445;SDS011;9352;50.888;4.466;2023-11-18T09:39:09;19.15;;;5.47;;
18445;SDS011;9352;50.888;4.466;2023-11-18T09:41:54;15.55;;;5.65;;
18445;SDS011;9352;50.888;4.466;2023-11-18T09:44:21;11.93;;;5.40;;
18445;SDS011;9352;50.888;4.466;2023-11-18T09:46:49;9.05;;;5.35;;
18445;SDS011;9352;50.888;4.466;2023-11-18T09:49:25;13.65;;;5.75;;
18445;SDS011;9352;50.888;4.466;2023-11-18T09:51:58;18.63;;;5.78;;
18445;SDS011;9352;50.888;4.466;2023-11-18T09:54:30;13.98;;;5.32;;
18445;SDS011;9352;50.888;4.466;2023-11-18T09:57:07;11.90;;;5.35;;
18445;SDS011;9352;50.888;4.466;2023-11-18T09:59:41;11.70;;;5.10;;
18445;SDS011;9352;50.888;4.466;2023-11-18T10:02:13;14.95;;;5.35;;
18445;SDS011;9352;50.888;4.466;2023-11-18T10:04:43;15.57;;;5.20;;
18445;SDS011;9352;50.888;4.466;2023-11-18T10:07:11;11.85;;;5.75;;
18445;SDS011;9352;50.888;4.466;2023-11-18T10:09:41;15.70;;;5.45;;
18445;SDS011;9352;50.888;4.466;2023-11-18T10:12:09;11.45;;;5.03;;
18445;SDS011;9352;50.888;4.466;2023-11-18T10:14:41;13.00;;;5.30;;
18445;SDS011;9352;50.888;4.466;2023-11-18T10:17:09;8.68;;;4.75;;
18445;SDS011;9352;50.888;4.466;2023-11-18T10:19:53;14.82;;;5.30;;
18445;SDS011;9352;50.888;4.466;2023-11-18T10:22:25;10.25;;;5.20;;
18445;SDS011;9352;50.888;4.466;2023-11-18T10:24:53;18.30;;;5.43;;
18445;SDS011;9352;50.888;4.466;2023-11-18T10:27:21;11.15;;;5.40;;
18445;SDS011;9352;50.888;4.466;2023-11-18T10:29:50;11.80;;;5.65;;
18445;SDS011;9352;50.888;4.466;2023-11-18T10:32:21;12.45;;;5.15;;
18445;SDS011;9352;50.888;4.466;2023-11-18T10:34:54;10.90;;;4.82;;
18445;SDS011;9352;50.888;4.466;2023-11-18T10:37:22;11.05;;;4.95;;
18445;SDS011;9352;50.888;4.466;2023-11-18T10:39:49;18.05;;;5.55;;
18445;SDS011;9352;50.888;4.466;2023-11-18T10:42:16;10.30;;;5.10;;
18445;SDS011;9352;50.888;4.466;2023-11-18T10:44:56;11.40;;;4.97;;
18445;SDS011;9352;50.888;4.466;2023-11-18T10:47:25;9.02;;;4.38;;
18445;SDS011;9352;50.888;4.466;2023-11-18T10:49:52;5.45;;;4.28;;
18445;SDS011;9352;50.888;4.466;2023-11-18T10:52:22;9.20;;;4.68;;
18445;SDS011;9352;50.888;4.466;2023-11-18T10:54:51;9.23;;;4.50;;
18445;SDS011;9352;50.888;4.466;2023-11-18T10:57:19;8.82;;;4.63;;
18445;SDS011;9352;50.888;4.466;2023-11-18T10:59:59;8.23;;;4.43;;
18445;SDS011;9352;50.888;4.466;2023-11-18T11:02:29;8.07;;;4.22;;
18445;SDS011;9352;50.888;4.466;2023-11-18T11:05:01;6.90;;;4.38;;
18445;SDS011;9352;50.888;4.466;2023-11-18T11:07:28;6.88;;;4.38;;
18445;SDS011;9352;50.888;4.466;2023-11-18T11:09:59;5.88;;;3.83;;
18445;SDS011;9352;50.888;4.466;2023-11-18T11:12:29;16.85;;;4.65;;
18445;SDS011;9352;50.888;4.466;2023-11-18T11:15:06;7.10;;;3.97;;
18445;SDS011;9352;50.888;4.466;2023-11-18T11:17:46;12.98;;;4.10;;
18445;SDS011;9352;50.888;4.466;2023-11-18T11:20:21;11.02;;;3.72;;
18445;SDS011;9352;50.888;4.466;2023-11-18T11:22:54;7.00;;;3.63;;
18445;SDS011;9352;50.888;4.466;2023-11-18T11:25:35;6.70;;;3.13;;
18445;SDS011;9352;50.888;4.466;2023-11-18T11:28:10;6.80;;;3.08;;
18445;SDS011;9352;50.888;4.466;2023-11-18T11:30:42;7.93;;;3.50;;
18445;SDS011;9352;50.888;4.466;2023-11-18T11:33:13;5.15;;;3.05;;
18445;SDS011;9352;50.888;4.466;2023-11-18T11:35:48;6.70;;;3.20;;
18445;SDS011;9352;50.888;4.466;2023-11-18T11:38:22;5.40;;;2.80;;
18445;SDS011;9352;50.888;4.466;2023-11-18T11:40:51;4.45;;;2.47;;
18445;SDS011;9352;50.888;4.466;2023-11-18T11:43:20;4.88;;;2.10;;
18445;SDS011;9352;50.888;4.466;2023-11-18T11:45:48;4.80;;;2.40;;
18445;SDS011;9352;50.888;4.466;2023-11-18T11:48:17;8.48;;;2.92;;
18445;SDS011;9352;50.888;4.466;2023-11-18T11:53:46;14.20;;;5.28;;
18445;SDS011;9352;50.888;4.466;2023-11-18T11:56:18;11.88;;;4.38;;
18445;SDS011;9352;50.888;4.466;2023-11-18T11:58:49;29.50;;;10.35;;
18445;SDS011;9352;50.888;4.466;2023-11-18T12:01:22;3.10;;;2.30;;
18445;SDS011;9352;50.888;4.466;2023-11-18T12:03:57;4.60;;;1.90;;
18445;SDS011;9352;50.888;4.466;2023-11-18T12:06:33;4.07;;;2.10;;
18445;SDS011;9352;50.888;4.466;2023-11-18T12:09:05;4.15;;;1.90;;
18445;SDS011;9352;50.888;4.466;2023-11-18T12:11:35;4.63;;;1.88;;
18445;SDS011;9352;50.888;4.466;2023-11-18T12:14:05;4.45;;;1.80;;
18445;SDS011;9352;50.888;4.466;2023-11-18T12:19:35;5.30;;;1.90;;
18445;SDS011;9352;50.888;4.466;2023-11-18T12:22:11;3.60;;;1.60;;
18445;SDS011;9352;50.888;4.466;2023-11-18T12:24:43;2.40;;;1.77;;
18445;SDS011;9352;50.888;4.466;2023-11-18T12:27:43;1.88;;;1.75;;
18445;SDS011;9352;50.888;4.466;2023-11-18T12:33:09;1.70;;;1.60;;
18445;SDS011;9352;50.888;4.466;2023-11-18T12:35:46;3.35;;;1.30;;
18445;SDS011;9352;50.888;4.466;2023-11-18T12:38:42;5.85;;;1.73;;
18445;SDS011;9352;50.888;4.466;2023-11-18T12:41:33;3.80;;;1.80;;
18445;SDS011;9352;50.888;4.466;2023-11-18T12:44:10;10.45;;;2.20;;
18445;SDS011;9352;50.888;4.466;2023-11-18T12:46:52;1.40;;;1.30;;
18445;SDS011;9352;50.888;4.466;2023-11-18T12:49:20;5.05;;;1.55;;
18445;SDS011;9352;50.888;4.466;2023-11-18T12:51:49;2.10;;;1.90;;
18445;SDS011;9352;50.888;4.466;2023-11-18T12:54:19;4.10;;;2.22;;
18445;SDS011;9352;50.888;4.466;2023-11-18T12:56:50;1.50;;;1.50;;
18445;SDS011;9352;50.888;4.466;2023-11-18T12:59:18;3.70;;;1.83;;
18445;SDS011;9352;50.888;4.466;2023-11-18T13:01:47;2.05;;;1.83;;
18445;SDS011;9352;50.888;4.466;2023-11-18T13:04:18;2.72;;;2.00;;
18445;SDS011;9352;50.888;4.466;2023-11-18T13:06:46;4.93;;;1.48;;
18445;SDS011;9352;50.888;4.466;2023-11-18T13:09:13;1.95;;;1.85;;
18445;SDS011;9352;50.888;4.466;2023-11-18T13:11:53;5.22;;;1.60;;
18445;SDS011;9352;50.888;4.466;2023-11-18T13:14:22;2.88;;;1.88;;
18445;SDS011;9352;50.888;4.466;2023-11-18T13:16:51;2.42;;;1.70;;
18445;SDS011;9352;50.888;4.466;2023-11-18T13:19:25;1.35;;;1.35;;
18445;SDS011;9352;50.888;4.466;2023-11-18T13:21:56;1.58;;;1.48;;
18445;SDS011;9352;50.888;4.466;2023-11-18T13:24:25;1.50;;;1.40;;
18445;SDS011;9352;50.888;4.466;2023-11-18T13:26:55;1.40;;;1.30;;
18445;SDS011;9352;50.888;4.466;2023-11-18T13:29:23;1.40;;;1.30;;
18445;SDS011;9352;50.888;4.466;2023-11-18T13:31:50;1.38;;;1.27;;
18445;SDS011;9352;50.888;4.466;2023-11-18T13:34:18;1.50;;;1.50;;
18445;SDS011;9352;50.888;4.466;2023-11-18T13:36:45;2.00;;;1.10;;
18445;SDS011;9352;50.888;4.466;2023-11-18T13:39:16;4.63;;;1.15;;
18445;SDS011;9352;50.888;4.466;2023-11-18T13:41:43;1.40;;;1.30;;
18445;SDS011;9352;50.888;4.466;2023-11-18T13:44:12;1.33;;;1.33;;
18445;SDS011;9352;50.888;4.466;2023-11-18T13:46:39;1.95;;;1.70;;
18445;SDS011;9352;50.888;4.466;2023-11-18T13:49:08;4.68;;;4.15;;
18445;SDS011;9352;50.888;4.466;2023-11-18T13:51:35;5.57;;;4.97;;
18445;SDS011;9352;50.888;4.466;2023-11-18T13:54:02;1.85;;;1.67;;
18445;SDS011;9352;50.888;4.466;2023-11-18T13:56:30;5.50;;;1.50;;
18445;SDS011;9352;50.888;4.466;2023-11-18T13:58:57;2.33;;;1.50;;
18445;SDS011;9352;50.888;4.466;2023-11-18T14:01:26;1.80;;;1.70;;
18445;SDS011;9352;50.888;4.466;2023-11-18T14:03:54;4.63;;;3.47;;
18445;SDS011;9352;50.888;4.466;2023-11-18T14:06:26;3.88;;;3.40;;
18445;SDS011;9352;50.888;4.466;2023-11-18T14:08:53;2.30;;;2.10;;
18445;SDS011;9352;50.888;4.466;2023-11-18T14:11:20;1.80;;;1.70;;
18445;SDS011;9352;50.888;4.466;2023-11-18T14:13:49;1.73;;;1.73;;
18445;SDS011;9352;50.888;4.466;2023-11-18T14:16:18;1.70;;;1.65;;
18445;SDS011;9352;50.888;4.466;2023-11-18T14:18:50;2.22;;;1.67;;
18445;SDS011;9352;50.888;4.466;2023-11-18T14:21:16;2.00;;;1.58;;
18445;SDS011;9352;50.888;4.466;2023-11-18T14:23:45;2.40;;;1.60;;
18445;SDS011;9352;50.888;4.466;2023-11-18T14:26:12;1.65;;;1.45;;
18445;SDS011;9352;50.888;4.466;2023-11-18T14:28:39;1.90;;;1.60;;
18445;SDS011;9352;50.888;4.466;2023-11-18T14:31:07;1.70;;;1.60;;
18445;SDS011;9352;50.888;4.466;2023-11-18T14:33:36;1.77;;;1.40;;
18445;SDS011;9352;50.888;4.466;2023-11-18T14:36:05;1.83;;;1.58;;
18445;SDS011;9352;50.888;4.466;2023-11-18T14:38:34;1.98;;;1.40;;
18445;SDS011;9352;50.888;4.466;2023-11-18T14:41:02;3.00;;;1.70;;
18445;SDS011;9352;50.888;4.466;2023-11-18T14:43:29;1.50;;;1.40;;
18445;SDS011;9352;50.888;4.466;2023-11-18T14:45:57;2.30;;;1.90;;
18445;SDS011;9352;50.888;4.466;2023-11-18T14:48:23;1.65;;;1.63;;
18445;SDS011;9352;50.888;4.466;2023-11-18T14:50:50;1.20;;;1.10;;
18445;SDS011;9352;50.888;4.466;2023-11-18T14:53:19;1.75;;;1.63;;
18445;SDS011;9352;50.888;4.466;2023-11-18T14:55:45;1.48;;;1.48;;
18445;SDS011;9352;50.888;4.466;2023-11-18T14:58:12;1.58;;;1.48;;
18445;SDS011;9352;50.888;4.466;2023-11-18T15:00:39;2.83;;;1.40;;
18445;SDS011;9352;50.888;4.466;2023-11-18T15:03:07;9.23;;;1.38;;
18445;SDS011;9352;50.888;4.466;2023-11-18T15:05:35;1.13;;;1.13;;
18445;SDS011;9352;50.888;4.466;2023-11-18T15:08:03;1.45;;;1.35;;
18445;SDS011;9352;50.888;4.466;2023-11-18T15:10:35;1.30;;;1.30;;